Preston Park, Pennsylvania
Current Conditions -  °F | °C
As of 3:35 PM on Friday 28 Nov 2014 (Local Time) from KMSV Reporting Station
Broken Clouds Broken Clouds  
Wind Chill: 12°   Ceiling: 3800
Heat Index: 23°   Visibility: 10mi
Dew Point: 12°   Wind: 12mph
Humidity: 63%   Direction: 300°WNW
Pressure: 30.14"   Gusts: 21mph
Location:  41.88°N, 75.36°W
Report Text: KMSV 282035Z AUTO 30010G18KT 10SM BKN038 M05/M11 A3014 RMK AO1
Loading
Personal Weather Stations






























Interactive Weather Map New forecast layout! Learn more

10-Day Weather Forecast

Advertisements
Track Severe Weather on mobile